Rexford, Montana
Current Conditions -  °F | °C
As of 7:55 PM on Wednesday 22 Oct 2014 (Local Time) from K65S Reporting Station
Haze Haze  
Wind Chill: 46°   Ceiling: 6000
Heat Index: 46°   Visibility: 4mi
Dew Point: 46°   Wind: 0mph
Humidity: 100%   Direction: NA
Pressure: 29.83"   Gusts: NA
Location:  48.9°N, 115.17°W
Report Text: K65S 230155Z AUTO 00000KT 4SM BR SCT044 OVC060 08/08 A2983 RMK AO2 P0001
Loading
Personal Weather Stations






























Interactive Weather Map
Tropical Storm Tracking
New forecast layout! Learn more

10-Day Weather Forecast

Advertisements
Track Severe Weather on mobile